createdAt,value
2022-08-08T00:00:52.314Z,17.26921
2022-08-08T00:06:04.002Z,17.10735
2022-08-08T00:11:08.092Z,17.02303
2022-08-08T00:16:14.206Z,16.97037
2022-08-08T00:21:16.516Z,16.88864
2022-08-08T00:26:21.749Z,16.81918
2022-08-08T00:32:21.320Z,16.78719
2022-08-08T00:37:45.330Z,16.68543
2022-08-08T00:42:57.864Z,16.60983
2022-08-08T00:48:29.533Z,16.5646
2022-08-08T00:53:31.369Z,16.54393
2022-08-08T00:58:54.210Z,16.48448
2022-08-08T01:04:02.838Z,16.39629
2022-08-08T01:09:36.069Z,16.35655
2022-08-08T01:14:53.578Z,16.43344
2022-08-08T01:20:03.072Z,16.28128
2022-08-08T01:25:05.084Z,16.14818
2022-08-08T01:30:09.354Z,16.1443
2022-08-08T01:35:12.419Z,16.09487
2022-08-08T01:40:18.516Z,16.04997
2022-08-08T01:45:22.747Z,15.98439
2022-08-08T01:50:26.222Z,15.93108
2022-08-08T01:56:27.257Z,16.00894
2022-08-08T02:01:54.776Z,16.05998
2022-08-08T02:07:04.183Z,16.03543
2022-08-08T02:12:05.178Z,15.91945
2022-08-08T02:17:18.000Z,15.86388
2022-08-08T02:22:21.202Z,15.79346
2022-08-08T02:27:38.888Z,15.81607
2022-08-08T02:42:44.688Z,15.58088
2022-08-08T02:47:54.744Z,15.58638
2022-08-08T02:52:56.144Z,15.47104
2022-08-08T02:57:57.503Z,15.45005
2022-08-08T03:03:03.988Z,15.54664
2022-08-08T03:08:08.970Z,15.41935
2022-08-08T03:15:55.709Z,15.28819
2022-08-08T03:21:10.071Z,15.1496
2022-08-08T03:26:15.545Z,15.1286
2022-08-08T03:42:13.060Z,15.03815
2022-08-08T03:47:45.180Z,14.896
2022-08-08T03:52:47.108Z,14.87662
2022-08-08T03:58:31.632Z,14.85304
2022-08-08T04:03:59.107Z,14.81911
2022-08-08T04:09:10.206Z,14.79682
2022-08-08T04:14:34.473Z,14.81298
2022-08-08T04:19:37.090Z,14.87888
2022-08-08T04:24:38.040Z,14.81556
2022-08-08T04:29:55.493Z,14.86757
2022-08-08T04:35:01.964Z,14.95706
2022-08-08T04:45:23.850Z,15.38059
2022-08-08T04:50:34.277Z,15.21777
2022-08-08T04:55:55.477Z,15.44068
2022-08-08T05:00:57.725Z,15.31824
2022-08-08T05:05:59.207Z,15.35216
2022-08-08T05:11:02.407Z,15.44811
2022-08-08T05:16:49.380Z,15.51498
2022-08-08T05:22:01.111Z,15.63257
2022-08-08T05:27:02.004Z,15.76794
2022-08-08T05:32:06.210Z,15.93108
2022-08-08T05:37:17.259Z,16.10489
2022-08-08T05:42:20.343Z,16.24025
2022-08-08T05:47:41.592Z,16.4231
2022-08-08T05:52:54.057Z,16.65248
2022-08-08T05:58:04.117Z,17.13352
2022-08-08T06:03:07.387Z,17.37517
2022-08-08T06:08:20.446Z,17.46369
2022-08-08T06:13:35.800Z,17.61133
2022-08-08T06:18:50.244Z,17.85169
2022-08-08T06:24:04.644Z,18.0591
2022-08-08T06:29:26.779Z,18.23259
2022-08-08T06:35:11.984Z,18.45066
2022-08-08T06:41:06.208Z,18.72042
2022-08-08T06:46:09.070Z,18.94205
2022-08-08T06:51:10.310Z,19.57463
2022-08-08T06:56:12.080Z,20.12514
2022-08-08T07:02:17.617Z,20.82363
2022-08-08T07:07:29.377Z,20.70345
2022-08-08T07:12:34.054Z,20.49668
2022-08-08T07:17:56.493Z,20.47406
2022-08-08T07:23:04.723Z,20.37811
2022-08-08T07:28:07.737Z,20.63754
2022-08-08T07:33:10.188Z,21.07983
2022-08-08T07:38:20.862Z,21.29339
2022-08-08T07:43:37.145Z,21.23847
2022-08-08T07:48:38.920Z,21.42101
2022-08-08T07:54:02.337Z,21.92533
2022-08-08T07:59:04.397Z,22.15214
2022-08-08T08:04:06.962Z,22.54371
2022-08-08T08:09:14.719Z,23.1608
2022-08-08T08:14:17.103Z,23.43575
2022-08-08T08:19:23.183Z,23.44027
2022-08-08T08:24:30.314Z,24.41632
2022-08-08T08:29:31.932Z,24.20696
2022-08-08T08:34:34.276Z,23.95948
2022-08-08T08:40:00.039Z,24.01214
2022-08-08T08:45:21.415Z,24.32134
2022-08-08T08:50:31.973Z,24.95556
2022-08-08T08:55:39.368Z,25.13682
2022-08-08T09:01:04.843Z,26.52903
2022-08-08T09:06:19.334Z,26.4418
2022-08-08T09:11:33.191Z,26.07121
2022-08-08T09:16:34.676Z,25.91741
2022-08-08T09:26:39.588Z,26.3607
2022-08-08T09:37:39.522Z,26.27637
2022-08-08T09:43:00.524Z,25.99172
2022-08-08T09:48:16.076Z,26.20141
2022-08-08T09:53:24.929Z,26.50965
2022-08-08T09:58:57.762Z,26.62887
2022-08-08T10:03:58.867Z,26.60819
2022-08-08T10:09:03.586Z,26.72612
2022-08-08T10:14:06.109Z,26.9174
2022-08-08T10:19:07.356Z,27.28573
2022-08-08T10:24:12.200Z,27.70964
2022-08-08T10:29:44.049Z,27.92095
2022-08-08T10:35:01.327Z,28.40011
2022-08-08T10:40:07.261Z,28.54098
2022-08-08T10:45:09.236Z,28.74874
2022-08-08T10:50:15.546Z,28.75746
2022-08-08T10:55:39.377Z,28.70447
2022-08-08T11:00:53.564Z,27.46861
2022-08-08T11:06:06.046Z,27.04308
2022-08-08T11:12:00.722Z,26.97039
2022-08-08T11:17:15.598Z,27.38621
2022-08-08T11:22:16.750Z,27.88961
2022-08-08T11:27:23.312Z,28.02531
2022-08-08T11:32:29.166Z,27.8825
2022-08-08T11:38:34.497Z,28.12676
2022-08-08T11:43:42.067Z,28.5342
2022-08-08T11:48:48.779Z,28.5077
2022-08-08T11:53:50.644Z,27.78621
2022-08-08T11:58:59.804Z,28.08024
2022-08-08T12:04:00.803Z,27.81077
2022-08-08T12:09:02.176Z,28.09672
2022-08-08T12:14:04.363Z,28.36812
2022-08-08T12:19:05.973Z,28.9006
2022-08-08T12:24:07.098Z,28.90189
2022-08-08T12:29:11.337Z,29.25085
2022-08-08T12:34:14.493Z,29.12677
2022-08-08T12:39:20.372Z,28.70254
2022-08-08T12:44:32.332Z,28.81498
2022-08-08T12:49:45.305Z,29.46087
2022-08-08T12:54:47.559Z,30.46218
2022-08-08T13:00:05.800Z,30.85799
2022-08-08T13:05:15.605Z,31.45705
2022-08-08T13:10:28.053Z,31.87451
2022-08-08T13:15:29.155Z,32.1091
2022-08-08T13:20:30.051Z,32.44934
2022-08-08T13:25:31.894Z,32.87133
2022-08-08T13:30:33.303Z,33.1825
2022-08-08T13:35:38.686Z,33.12401
2022-08-08T13:40:45.088Z,33.19413
2022-08-08T13:45:47.210Z,33.00284
2022-08-08T13:50:53.650Z,32.59894
2022-08-08T13:55:54.942Z,32.15207
2022-08-08T14:00:56.396Z,31.80407
2022-08-08T14:06:00.704Z,31.39501
2022-08-08T14:11:07.563Z,31.05025
2022-08-08T14:16:16.562Z,30.92197
2022-08-08T14:21:20.843Z,30.47026
2022-08-08T14:26:25.181Z,30.30192
2022-08-08T14:31:36.841Z,31.15914
2022-08-08T14:37:13.430Z,31.7653
2022-08-08T14:42:16.916Z,32.1944
2022-08-08T14:47:21.700Z,31.56755
2022-08-08T14:52:23.135Z,31.58435
2022-08-08T14:58:00.660Z,31.96466
2022-08-08T15:03:15.689Z,32.37534
2022-08-08T15:08:22.044Z,32.27162
2022-08-08T15:13:23.555Z,31.88711
2022-08-08T15:18:29.784Z,31.49744
2022-08-08T15:23:34.607Z,31.23894
2022-08-08T15:28:35.847Z,30.74878
2022-08-08T15:33:38.544Z,30.49223
2022-08-08T15:39:01.610Z,30.19432
2022-08-08T15:44:02.581Z,30.11968
2022-08-08T15:49:04.555Z,29.86798
2022-08-08T15:54:05.954Z,29.86475
2022-08-08T15:59:19.713Z,30.09739
2022-08-08T16:05:14.012Z,30.23245
2022-08-08T16:13:03.379Z,30.46218
2022-08-08T16:18:12.030Z,29.99464
2022-08-08T16:23:13.490Z,29.87186
2022-08-08T16:28:22.737Z,29.96492
2022-08-08T16:33:29.638Z,29.5704
2022-08-08T16:38:44.843Z,29.26991
2022-08-08T16:43:50.775Z,28.93
2022-08-08T16:48:52.798Z,29.1258
2022-08-08T16:55:04.081Z,29.36361
2022-08-08T17:00:26.796Z,29.21821
2022-08-08T17:05:31.180Z,29.05957
2022-08-08T17:10:53.646Z,28.93517
2022-08-08T17:15:59.555Z,28.6909
2022-08-08T17:21:03.664Z,28.49801
2022-08-08T17:26:05.947Z,28.36554
2022-08-08T17:31:44.064Z,28.34744
2022-08-08T17:37:01.047Z,28.01206
2022-08-08T17:42:04.640Z,27.83565
2022-08-08T17:47:05.617Z,27.58395
2022-08-08T17:52:10.625Z,27.39558
2022-08-08T17:57:11.687Z,27.25051
2022-08-08T18:02:18.566Z,27.29769
2022-08-08T18:12:20.645Z,27.1636
2022-08-08T18:17:28.439Z,26.91514
2022-08-08T18:23:07.085Z,26.73711
2022-08-08T18:28:15.664Z,26.48574
2022-08-08T18:34:11.377Z,26.68767
2022-08-08T18:39:27.506Z,26.28154
2022-08-08T18:44:29.964Z,26.19592
2022-08-08T18:49:40.838Z,25.93421
2022-08-08T18:55:09.884Z,25.62243
2022-08-08T19:00:15.827Z,25.2961
2022-08-08T19:05:20.393Z,24.99756
2022-08-08T19:10:22.274Z,24.76558
2022-08-08T19:15:23.899Z,24.65573
2022-08-08T19:20:27.190Z,24.55525
2022-08-08T19:26:20.003Z,24.34072
2022-08-08T19:31:35.690Z,24.16625
2022-08-08T19:36:36.753Z,24.0144
2022-08-08T19:41:39.225Z,23.8451
2022-08-08T19:46:42.692Z,23.71651
2022-08-08T19:51:45.977Z,23.63606
2022-08-08T19:56:50.382Z,23.48131
2022-08-08T20:02:02.381Z,23.38083
2022-08-08T20:08:26.852Z,23.69648
2022-08-08T20:18:52.468Z,23.75819
2022-08-08T20:23:57.906Z,23.41637
2022-08-08T20:28:59.433Z,23.0768
2022-08-08T20:34:28.083Z,22.88618
2022-08-08T20:39:33.988Z,22.69621
2022-08-08T20:44:42.121Z,22.53144
2022-08-08T20:49:46.786Z,22.45454
2022-08-08T20:54:48.071Z,22.4035
2022-08-08T20:59:49.965Z,22.1964
2022-08-08T21:04:52.717Z,22.06846
2022-08-08T21:10:07.799Z,21.89464
2022-08-08T21:15:16.719Z,21.79513
2022-08-08T21:21:05.592Z,21.68012
2022-08-08T21:26:10.179Z,21.57738
2022-08-08T21:31:22.666Z,21.4979
2022-08-08T21:36:28.492Z,21.41907
2022-08-08T21:41:42.699Z,21.55864
2022-08-08T21:48:05.108Z,21.36996
2022-08-08T21:54:31.739Z,21.24913
2022-08-08T22:00:03.739Z,21.16093
2022-08-08T22:05:05.887Z,21.12183
2022-08-08T22:10:09.346Z,21.13637
2022-08-08T22:15:11.138Z,21.04753
2022-08-08T22:20:18.849Z,20.90634
2022-08-08T22:25:29.572Z,20.76968
2022-08-08T22:31:21.311Z,20.67954
2022-08-08T22:36:32.367Z,20.61008
2022-08-08T22:41:35.634Z,20.56291
2022-08-08T22:46:40.338Z,20.50831
2022-08-08T22:51:46.642Z,20.44402
2022-08-08T22:56:47.814Z,20.40363
2022-08-08T23:02:02.348Z,20.36616
2022-08-08T23:22:05.570Z,20.57002
2022-08-08T23:27:06.684Z,20.39911
2022-08-08T23:32:10.265Z,20.41171
2022-08-08T23:42:17.279Z,20.4731
2022-08-08T23:49:07.544Z,20.2996
2022-08-08T23:54:41.978Z,20.1232
2022-08-08T23:59:55.641Z,20.24371
